createdAt,value
2022-09-25T00:01:29.415Z,10.97
2022-09-25T00:03:57.751Z,11.13
2022-09-25T00:06:27.671Z,11.00
2022-09-25T00:08:57.658Z,10.53
2022-09-25T00:11:28.723Z,11.83
2022-09-25T00:13:57.156Z,10.87
2022-09-25T00:16:27.260Z,10.37
2022-09-25T00:19:12.422Z,10.00
2022-09-25T00:21:40.345Z,10.43
2022-09-25T00:24:12.449Z,9.83
2022-09-25T00:26:42.559Z,10.10
2022-09-25T00:29:15.059Z,10.07
2022-09-25T00:31:43.012Z,10.10
2022-09-25T00:34:12.041Z,10.30
2022-09-25T00:36:40.279Z,10.10
2022-09-25T00:39:09.844Z,9.50
2022-09-25T00:41:38.107Z,10.50
2022-09-25T00:44:47.700Z,10.63
2022-09-25T00:47:20.112Z,9.80
2022-09-25T00:49:48.545Z,9.77
2022-09-25T00:52:16.733Z,10.07
2022-09-25T00:54:49.950Z,10.40
2022-09-25T00:57:21.713Z,9.60
2022-09-25T00:59:53.535Z,9.70
2022-09-25T01:02:26.732Z,9.87
2022-09-25T01:04:58.817Z,9.97
2022-09-25T01:07:26.936Z,10.30
2022-09-25T01:10:02.542Z,9.87
2022-09-25T01:12:31.055Z,10.40
2022-09-25T01:14:59.061Z,10.10
2022-09-25T01:17:34.537Z,10.23
2022-09-25T01:20:15.129Z,8.90
2022-09-25T01:22:58.365Z,9.13
2022-09-25T01:25:44.958Z,8.77
2022-09-25T01:28:23.179Z,8.83
2022-09-25T01:30:58.706Z,9.07
2022-09-25T01:33:32.774Z,8.47
2022-09-25T01:36:03.470Z,8.77
2022-09-25T01:38:36.018Z,8.77
2022-09-25T01:41:09.675Z,8.80
2022-09-25T01:43:42.064Z,9.10
2022-09-25T01:46:16.950Z,7.90
2022-09-25T01:48:48.606Z,8.07
2022-09-25T01:51:20.798Z,8.03
2022-09-25T01:53:52.709Z,8.20
2022-09-25T01:56:29.240Z,7.87
2022-09-25T01:59:01.486Z,7.90
2022-09-25T02:01:35.868Z,8.37
2022-09-25T02:04:08.164Z,8.60
2022-09-25T02:06:38.585Z,8.30
2022-09-25T02:09:11.190Z,8.30
2022-09-25T02:11:44.600Z,8.23
2022-09-25T02:14:17.777Z,8.50
2022-09-25T02:16:49.350Z,8.13
2022-09-25T02:19:36.196Z,7.90
2022-09-25T02:22:09.077Z,7.47
2022-09-25T02:24:42.101Z,7.80
2022-09-25T02:27:10.241Z,8.47
2022-09-25T02:29:38.271Z,8.07
2022-09-25T02:32:12.092Z,8.20
2022-09-25T02:34:40.373Z,8.00
2022-09-25T02:37:11.819Z,8.20
2022-09-25T02:39:41.064Z,8.00
2022-09-25T02:42:21.133Z,7.53
2022-09-25T02:45:04.664Z,8.13
2022-09-25T02:47:38.320Z,7.67
2022-09-25T02:50:14.379Z,8.07
2022-09-25T02:52:50.149Z,7.90
2022-09-25T02:55:25.666Z,6.93
2022-09-25T02:57:57.603Z,7.13
2022-09-25T03:00:25.848Z,7.43
2022-09-25T03:02:59.595Z,8.27
2022-09-25T03:05:28.277Z,7.83
2022-09-25T03:08:13.841Z,6.70
2022-09-25T03:10:46.109Z,7.07
2022-09-25T03:13:15.190Z,6.53
2022-09-25T03:15:45.344Z,7.27
2022-09-25T03:18:15.299Z,6.73
2022-09-25T03:20:43.363Z,6.53
2022-09-25T03:23:11.608Z,7.17
2022-09-25T03:25:39.900Z,6.53
2022-09-25T03:28:13.018Z,6.50
2022-09-25T03:30:41.607Z,7.03
2022-09-25T03:33:10.673Z,6.40
2022-09-25T03:35:40.767Z,7.00
2022-09-25T03:38:10.561Z,6.07
2022-09-25T03:40:38.682Z,6.47
2022-09-25T03:45:33.771Z,5.47
2022-09-25T03:48:02.018Z,6.77
2022-09-25T03:50:30.190Z,6.30
2022-09-25T03:52:59.691Z,5.90
2022-09-25T03:55:27.649Z,6.10
2022-09-25T03:57:55.541Z,5.97
2022-09-25T04:00:24.031Z,5.83
2022-09-25T04:02:52.348Z,6.10
2022-09-25T04:05:21.798Z,6.33
2022-09-25T04:07:49.970Z,6.50
2022-09-25T04:10:19.325Z,6.27
2022-09-25T04:12:47.507Z,5.40
2022-09-25T04:15:15.547Z,5.20
2022-09-25T04:17:43.787Z,5.63
2022-09-25T04:20:12.032Z,5.53
2022-09-25T04:22:40.213Z,5.60
2022-09-25T04:25:10.038Z,5.20
2022-09-25T04:27:39.741Z,5.70
2022-09-25T04:30:10.734Z,5.77
2022-09-25T04:32:56.883Z,5.80
2022-09-25T04:35:24.951Z,5.23
2022-09-25T04:37:52.821Z,5.67
2022-09-25T04:40:21.084Z,5.40
2022-09-25T04:42:50.783Z,5.33
2022-09-25T04:45:19.572Z,5.80
2022-09-25T04:47:47.605Z,5.20
2022-09-25T04:50:17.197Z,5.37
2022-09-25T04:52:46.451Z,5.13
2022-09-25T04:55:14.445Z,5.43
2022-09-25T04:58:02.426Z,5.53
2022-09-25T05:00:33.696Z,5.60
2022-09-25T05:03:04.396Z,5.27
2022-09-25T05:05:33.062Z,5.27
2022-09-25T05:08:02.893Z,5.40
2022-09-25T05:10:32.545Z,5.33
2022-09-25T05:13:01.988Z,5.37
2022-09-25T05:15:33.435Z,6.43
2022-09-25T05:18:02.333Z,4.63
2022-09-25T05:20:30.655Z,5.67
2022-09-25T05:22:59.206Z,5.27
2022-09-25T05:25:28.002Z,4.93
2022-09-25T05:27:58.393Z,5.67
2022-09-25T05:30:27.053Z,5.13
2022-09-25T05:32:58.255Z,5.57
2022-09-25T05:35:27.817Z,4.97
2022-09-25T05:37:56.182Z,5.17
2022-09-25T05:40:25.128Z,4.93
2022-09-25T05:42:55.260Z,5.37
2022-09-25T05:45:24.249Z,5.43
2022-09-25T05:48:03.258Z,5.93
2022-09-25T05:50:32.337Z,5.50
2022-09-25T05:53:01.678Z,5.23
2022-09-25T05:55:30.390Z,5.60
2022-09-25T05:58:02.699Z,5.10
2022-09-25T06:00:32.808Z,4.90
2022-09-25T06:03:02.916Z,4.90
2022-09-25T06:05:31.208Z,4.93
2022-09-25T06:07:59.691Z,6.07
2022-09-25T06:10:28.332Z,5.07
2022-09-25T06:12:58.989Z,5.53
2022-09-25T06:15:27.760Z,4.80
2022-09-25T06:17:55.965Z,5.37
2022-09-25T06:20:25.777Z,4.90
2022-09-25T06:22:54.683Z,4.90
2022-09-25T06:25:23.716Z,5.10
2022-09-25T06:27:53.905Z,5.27
2022-09-25T06:30:22.078Z,4.77
2022-09-25T06:32:51.050Z,4.80
2022-09-25T06:35:19.077Z,4.10
2022-09-25T06:37:48.378Z,5.00
2022-09-25T06:40:17.183Z,5.23
2022-09-25T06:42:46.222Z,4.60
2022-09-25T06:45:14.367Z,4.93
2022-09-25T06:47:42.722Z,4.80
2022-09-25T06:50:12.334Z,4.30
2022-09-25T06:52:43.618Z,4.17
2022-09-25T06:55:13.345Z,4.07
2022-09-25T06:57:52.480Z,3.80
2022-09-25T07:00:21.011Z,4.33
2022-09-25T07:03:06.013Z,4.57
2022-09-25T07:05:36.191Z,4.30
2022-09-25T07:08:04.798Z,4.30
2022-09-25T07:10:34.891Z,4.47
2022-09-25T07:13:04.352Z,4.10
2022-09-25T07:15:35.848Z,4.27
2022-09-25T07:18:04.907Z,4.50
2022-09-25T07:20:33.949Z,4.20
2022-09-25T07:23:03.910Z,4.57
2022-09-25T07:25:34.137Z,3.90
2022-09-25T07:28:05.994Z,4.40
2022-09-25T07:30:37.273Z,3.90
2022-09-25T07:33:09.501Z,4.53
2022-09-25T07:35:38.504Z,3.87
2022-09-25T07:38:06.975Z,4.10
2022-09-25T07:40:37.193Z,4.97
2022-09-25T07:43:05.904Z,4.63
2022-09-25T07:45:34.024Z,5.23
2022-09-25T07:48:03.670Z,4.87
2022-09-25T07:50:37.666Z,4.77
2022-09-25T07:53:10.802Z,5.30
2022-09-25T07:55:41.283Z,5.93
2022-09-25T07:58:16.210Z,6.30
2022-09-25T08:00:46.050Z,6.07
2022-09-25T08:03:16.851Z,6.60
2022-09-25T08:05:54.924Z,7.10
2022-09-25T08:08:31.435Z,7.20
2022-09-25T08:11:06.767Z,7.40
2022-09-25T08:24:27.088Z,7.90
2022-09-25T08:27:07.816Z,8.40
2022-09-25T08:29:42.375Z,9.63
2022-09-25T08:32:11.349Z,9.47
2022-09-25T08:34:45.633Z,10.60
2022-09-25T08:37:15.272Z,10.50
2022-09-25T08:39:43.959Z,10.60
2022-09-25T08:42:20.257Z,11.10
2022-09-25T08:45:22.353Z,10.77
2022-09-25T08:48:10.930Z,10.67
2022-09-25T08:50:42.061Z,10.23
2022-09-25T08:53:17.507Z,10.67
2022-09-25T08:56:07.459Z,9.80
2022-09-25T08:58:45.073Z,11.60
2022-09-25T09:01:17.994Z,11.43
2022-09-25T09:03:54.542Z,10.00
2022-09-25T09:06:27.937Z,10.23
2022-09-25T09:09:22.134Z,10.23
2022-09-25T09:12:15.219Z,11.40
2022-09-25T09:14:52.081Z,11.30
2022-09-25T09:17:59.943Z,11.33
2022-09-25T09:20:35.300Z,12.10
2022-09-25T09:25:59.927Z,11.30
2022-09-25T09:29:24.766Z,10.57
2022-09-25T09:32:06.110Z,10.80
2022-09-25T09:53:34.260Z,11.23
2022-09-25T09:56:09.259Z,9.43
2022-09-25T09:58:47.747Z,9.87
2022-09-25T10:01:40.193Z,10.03
2022-09-25T10:04:12.823Z,9.73
2022-09-25T10:06:45.448Z,10.17
2022-09-25T10:33:57.261Z,7.90
2022-09-25T10:36:34.320Z,8.70
2022-09-25T10:39:24.499Z,8.37
2022-09-25T10:41:52.245Z,8.03
2022-09-25T10:44:24.343Z,8.13
2022-09-25T10:47:10.615Z,8.20
2022-09-25T10:50:12.343Z,8.27
2022-09-25T11:00:45.275Z,7.93
2022-09-25T11:03:21.705Z,6.80
2022-09-25T11:05:57.309Z,6.47
2022-09-25T11:08:32.650Z,5.83
2022-09-25T11:59:26.307Z,6.13
2022-09-25T12:02:15.012Z,5.70
2022-09-25T12:05:07.365Z,6.20
2022-09-25T12:08:05.200Z,5.23
2022-09-25T12:10:46.578Z,5.97
2022-09-25T12:13:31.061Z,6.97
2022-09-25T12:16:14.073Z,6.60
2022-09-25T12:19:11.638Z,7.17
2022-09-25T12:21:48.186Z,6.17
2022-09-25T12:24:32.791Z,5.67
2022-09-25T12:27:09.296Z,7.00
2022-09-25T12:30:03.414Z,6.97
2022-09-25T12:36:00.297Z,6.07
2022-09-25T12:38:38.646Z,5.57
2022-09-25T12:41:18.285Z,6.53
2022-09-25T12:43:53.925Z,5.33
2022-09-25T12:46:30.361Z,6.80
2022-09-25T12:49:11.550Z,6.43
2022-09-25T12:51:43.836Z,6.43
2022-09-25T12:54:29.999Z,6.40
2022-09-25T13:00:18.684Z,6.17
2022-09-25T13:03:25.931Z,6.87
2022-09-25T13:06:05.730Z,6.90
2022-09-25T13:08:41.052Z,5.90
2022-09-25T13:11:15.907Z,7.07
2022-09-25T13:13:51.540Z,7.00
2022-09-25T13:16:20.462Z,7.00
2022-09-25T13:18:49.753Z,7.03
2022-09-25T13:21:26.779Z,7.50
2022-09-25T13:24:00.298Z,8.63
2022-09-25T13:26:34.169Z,9.27
2022-09-25T13:29:06.531Z,7.67
2022-09-25T13:32:01.916Z,8.93
2022-09-25T13:37:47.088Z,9.03
2022-09-25T13:40:39.407Z,10.03
2022-09-25T13:43:24.376Z,8.30
2022-09-25T13:46:25.002Z,8.73
2022-09-25T13:48:55.378Z,8.50
2022-09-25T13:51:36.761Z,8.27
2022-09-25T13:54:26.742Z,8.97
2022-09-25T13:57:08.762Z,9.63
2022-09-25T13:59:39.403Z,8.97
2022-09-25T14:02:48.991Z,10.03
2022-09-25T14:05:24.634Z,10.17
2022-09-25T14:08:10.939Z,10.23
2022-09-25T14:10:47.027Z,10.13
2022-09-25T14:13:23.090Z,10.37
2022-09-25T14:15:53.815Z,11.10
2022-09-25T14:18:35.543Z,11.33
2022-09-25T14:21:17.197Z,13.17
2022-09-25T14:23:50.201Z,13.70
2022-09-25T14:26:37.653Z,11.37
2022-09-25T14:29:21.196Z,13.47
2022-09-25T14:32:04.502Z,12.60
2022-09-25T14:35:01.445Z,11.97
2022-09-25T14:41:32.337Z,11.53
2022-09-25T14:44:26.490Z,10.80
2022-09-25T14:46:56.178Z,11.57
2022-09-25T14:49:27.888Z,11.40
2022-09-25T14:51:58.654Z,11.47
2022-09-25T14:54:43.026Z,10.67
2022-09-25T14:57:16.115Z,10.47
2022-09-25T14:59:55.001Z,10.17
2022-09-25T15:02:35.829Z,10.37
2022-09-25T15:05:22.635Z,10.43
2022-09-25T15:07:54.160Z,9.97
2022-09-25T15:10:31.855Z,9.80
2022-09-25T15:13:15.955Z,9.57
2022-09-25T15:16:18.319Z,10.17
2022-09-25T15:18:49.853Z,8.77
2022-09-25T15:21:26.186Z,10.10
2022-09-25T15:23:55.874Z,8.87
2022-09-25T15:26:24.849Z,8.40
2022-09-25T15:28:53.320Z,8.63
2022-09-25T15:31:23.524Z,10.10
2022-09-25T15:34:04.305Z,9.90
2022-09-25T15:36:32.702Z,9.20
2022-09-25T15:42:01.571Z,10.40
2022-09-25T15:44:30.868Z,9.27
2022-09-25T15:47:02.745Z,9.90
2022-09-25T15:49:36.328Z,10.00
2022-09-25T15:52:08.639Z,9.93
2022-09-25T15:54:46.514Z,10.53
2022-09-25T15:57:17.718Z,10.80
2022-09-25T16:00:06.396Z,10.27
2022-09-25T16:02:57.654Z,11.40
2022-09-25T16:05:32.442Z,9.97
2022-09-25T16:08:18.956Z,10.63
2022-09-25T16:10:50.457Z,10.17
2022-09-25T16:13:26.438Z,10.63
2022-09-25T16:15:56.481Z,9.80
2022-09-25T16:18:40.111Z,10.30
2022-09-25T16:21:20.818Z,10.10
2022-09-25T16:23:58.015Z,9.63
2022-09-25T16:26:33.993Z,9.83
2022-09-25T16:29:09.153Z,10.23
2022-09-25T16:31:38.603Z,10.20
2022-09-25T16:34:23.958Z,10.30
2022-09-25T16:36:53.320Z,10.13
2022-09-25T16:39:27.775Z,10.97
2022-09-25T16:42:00.817Z,10.97
2022-09-25T16:44:50.988Z,10.43
2022-09-25T16:47:21.355Z,11.47
2022-09-25T16:49:51.655Z,10.83
2022-09-25T16:52:22.977Z,11.90
2022-09-25T16:54:59.158Z,11.07
2022-09-25T16:57:29.773Z,11.80
2022-09-25T16:59:59.858Z,12.83
2022-09-25T17:02:36.243Z,12.67
2022-09-25T17:05:11.751Z,13.87
2022-09-25T17:07:42.811Z,14.30
2022-09-25T17:10:15.448Z,13.87
2022-09-25T17:12:49.895Z,13.00
2022-09-25T17:15:26.342Z,14.70
2022-09-25T17:17:57.355Z,15.50
2022-09-25T17:20:29.508Z,15.03
2022-09-25T17:23:00.263Z,14.93
2022-09-25T17:25:41.582Z,13.87
2022-09-25T17:29:30.156Z,14.97
2022-09-25T17:31:35.642Z,15.67
2022-09-25T17:34:07.361Z,15.37
2022-09-25T17:36:40.154Z,15.37
2022-09-25T17:39:08.852Z,16.10
2022-09-25T17:41:41.528Z,15.00
2022-09-25T17:44:14.856Z,15.27
2022-09-25T17:46:45.682Z,14.77
2022-09-25T17:49:15.434Z,14.83
2022-09-25T17:51:45.837Z,14.43
2022-09-25T17:54:16.177Z,14.87
2022-09-25T17:56:46.733Z,15.53
2022-09-25T17:59:15.815Z,15.17
2022-09-25T18:01:44.384Z,14.23
2022-09-25T18:06:52.831Z,14.70
2022-09-25T18:09:21.435Z,13.00
2022-09-25T18:11:49.699Z,13.30
2022-09-25T18:14:33.842Z,14.30
2022-09-25T18:17:04.735Z,13.30
2022-09-25T18:19:51.011Z,13.73
2022-09-25T18:22:25.369Z,14.53
2022-09-25T18:24:57.753Z,13.83
2022-09-25T18:27:28.024Z,13.53
2022-09-25T18:29:59.156Z,14.67
2022-09-25T18:32:31.881Z,13.50
2022-09-25T18:35:02.746Z,14.43
2022-09-25T18:37:35.347Z,14.17
2022-09-25T18:40:13.659Z,14.40
2022-09-25T18:42:42.515Z,14.13
2022-09-25T18:45:13.200Z,13.17
2022-09-25T18:47:42.462Z,14.10
2022-09-25T18:50:15.488Z,13.53
2022-09-25T18:52:52.989Z,15.47
2022-09-25T18:55:21.600Z,14.47
2022-09-25T18:57:49.985Z,14.27
2022-09-25T19:00:20.943Z,14.07
2022-09-25T19:02:51.678Z,14.17
2022-09-25T19:05:20.717Z,15.57
2022-09-25T19:07:53.463Z,13.43
2022-09-25T19:10:25.263Z,13.30
2022-09-25T19:12:56.781Z,14.07
2022-09-25T19:15:28.924Z,12.67
2022-09-25T19:18:00.949Z,13.07
2022-09-25T19:20:29.637Z,12.40
2022-09-25T19:23:02.287Z,12.23
2022-09-25T19:25:30.393Z,13.30
2022-09-25T19:27:58.826Z,12.00
2022-09-25T19:30:27.305Z,11.20
2022-09-25T19:32:56.372Z,11.67
2022-09-25T19:40:44.908Z,11.23
2022-09-25T19:45:55.039Z,9.40
2022-09-25T19:48:31.851Z,10.27
2022-09-25T19:51:04.459Z,9.73
2022-09-25T19:53:33.373Z,9.43
2022-09-25T19:56:04.725Z,9.13
2022-09-25T19:58:38.399Z,9.13
2022-09-25T20:01:12.405Z,10.40
2022-09-25T20:03:41.175Z,9.30
2022-09-25T20:06:12.039Z,9.33
2022-09-25T20:08:41.275Z,9.40
2022-09-25T20:11:15.398Z,10.17
2022-09-25T20:13:44.058Z,9.87
2022-09-25T20:16:14.820Z,10.37
2022-09-25T20:18:44.059Z,10.27
2022-09-25T20:21:13.915Z,9.70
2022-09-25T20:23:42.091Z,10.37
2022-09-25T20:26:11.813Z,9.67
2022-09-25T20:28:42.162Z,9.33
2022-09-25T20:31:12.900Z,9.10
2022-09-25T20:33:42.237Z,9.47
2022-09-25T20:36:12.954Z,8.87
2022-09-25T20:38:41.462Z,7.00
2022-09-25T20:41:11.463Z,29.60
2022-09-25T20:43:44.109Z,7.20
2022-09-25T20:46:14.266Z,6.90
2022-09-25T20:48:45.910Z,7.33
2022-09-25T20:51:17.042Z,7.87
2022-09-25T20:53:45.681Z,7.07
2022-09-25T20:56:15.544Z,7.07
2022-09-25T20:58:49.421Z,7.83
2022-09-25T21:01:22.828Z,7.83
2022-09-25T21:03:52.975Z,7.53
2022-09-25T21:06:23.752Z,7.43
2022-09-25T21:08:53.168Z,7.33
2022-09-25T21:11:21.478Z,7.03
2022-09-25T21:13:52.529Z,7.10
2022-09-25T21:16:22.344Z,7.93
2022-09-25T21:18:54.844Z,6.80
2022-09-25T21:21:24.397Z,6.37
2022-09-25T21:23:54.228Z,6.30
2022-09-25T21:26:23.470Z,7.60
2022-09-25T21:28:54.759Z,7.10
2022-09-25T21:31:24.608Z,6.40
2022-09-25T21:33:53.745Z,7.03
2022-09-25T21:36:23.166Z,6.47
2022-09-25T21:38:51.844Z,6.40
2022-09-25T21:41:21.714Z,6.23
2022-09-25T21:43:53.401Z,6.60
2022-09-25T21:46:23.215Z,7.23
2022-09-25T21:48:54.047Z,7.23
2022-09-25T21:51:24.074Z,6.80
2022-09-25T21:53:54.217Z,5.87
2022-09-25T21:56:25.262Z,6.37
2022-09-25T21:58:55.002Z,5.63
2022-09-25T22:01:27.600Z,5.63
2022-09-25T22:03:58.269Z,4.87
2022-09-25T22:06:27.873Z,4.40
2022-09-25T22:08:58.240Z,4.43
2022-09-25T22:11:27.258Z,4.67
2022-09-25T22:13:58.749Z,4.30
2022-09-25T22:16:31.602Z,4.67
2022-09-25T22:19:01.542Z,5.23
2022-09-25T22:21:31.571Z,4.60
2022-09-25T22:23:59.986Z,4.37
2022-09-25T22:26:29.194Z,3.97
2022-09-25T22:28:57.918Z,4.93
2022-09-25T22:31:29.713Z,4.07
2022-09-25T22:33:59.658Z,4.87
2022-09-25T22:36:28.905Z,4.97
2022-09-25T22:38:57.526Z,4.93
2022-09-25T22:41:26.235Z,4.43
2022-09-25T22:43:58.468Z,4.60
2022-09-25T22:46:30.826Z,4.70
2022-09-25T22:48:59.178Z,4.77
2022-09-25T22:51:28.226Z,5.03
2022-09-25T22:53:56.912Z,4.50
2022-09-25T22:56:29.233Z,4.93
2022-09-25T22:58:59.497Z,4.53
2022-09-25T23:01:33.141Z,4.07
2022-09-25T23:04:03.525Z,3.77
2022-09-25T23:06:32.998Z,3.60
2022-09-25T23:09:02.916Z,3.20
2022-09-25T23:11:31.302Z,4.07
2022-09-25T23:14:01.513Z,3.87
2022-09-25T23:16:30.229Z,3.70
2022-09-25T23:19:00.311Z,3.60
2022-09-25T23:21:30.401Z,3.50
2022-09-25T23:23:59.341Z,3.57
2022-09-25T23:26:27.735Z,3.20
2022-09-25T23:28:55.785Z,3.20
2022-09-25T23:31:24.506Z,3.30
2022-09-25T23:33:53.113Z,3.33
2022-09-25T23:36:24.807Z,2.80
2022-09-25T23:38:54.763Z,2.63
2022-09-25T23:41:24.641Z,3.17
2022-09-25T23:43:53.902Z,3.00
2022-09-25T23:46:24.722Z,2.80
2022-09-25T23:48:53.768Z,3.10
2022-09-25T23:51:23.973Z,3.13
2022-09-25T23:53:52.043Z,2.97
2022-09-25T23:56:22.422Z,2.70
2022-09-25T23:58:51.054Z,3.30
